Time;durP1;ratioP1;P1;durP2;ratioP2;P2;SDS_P1;SDS_P2;PMS_P1;PMS_P2;Temp;Humidity;BMP_temperature;BMP_pressure;BME280_temperature;BME280_humidity;BME280_pressure;Samples;Min_cycle;Max_cycle;Signal;HPM_P1;HPM_P2
2022/03/11 00:03:42;;;;;;;14.80;5.05;;;;;;;-2.47;48.83;100411.11;1752153;78;21052;-80
2022/03/11 00:06:09;;;;;;;9.23;4.22;;;;;;;-2.43;49.10;100404.09;1733163;81;21063;-83
2022/03/11 00:08:35;;;;;;;13.75;5.67;;;;;;;-2.49;49.47;100408.89;1732977;78;21028;-82
2022/03/11 00:11:02;;;;;;;12.60;4.72;;;;;;;-2.48;50.44;100411.52;1733111;78;21074;-82
2022/03/11 00:13:28;;;;;;;13.13;5.50;;;;;;;-2.53;50.73;100408.27;1733108;80;21144;-83
2022/03/11 00:15:56;;;;;;;11.48;4.42;;;;;;;-2.53;50.32;100405.72;1745801;78;21207;-81
2022/03/11 00:18:26;;;;;;;16.73;4.45;;;;;;;-2.57;50.31;100406.37;1757556;78;21010;31
2022/03/11 00:20:53;;;;;;;9.75;4.50;;;;;;;-2.63;50.30;100409.11;1815153;79;20993;-82
2022/03/11 00:23:19;;;;;;;25.32;6.53;;;;;;;-2.61;49.38;100404.97;1818768;79;21665;-83
2022/03/11 00:25:46;;;;;;;9.23;4.00;;;;;;;-2.60;49.67;100409.25;1818691;79;21033;-83
2022/03/11 00:28:13;;;;;;;13.60;4.87;;;;;;;-2.60;49.57;100402.02;1778192;77;21100;-83
2022/03/11 00:30:39;;;;;;;10.00;4.08;;;;;;;-2.59;49.36;100410.11;1777580;78;21039;-82
2022/03/11 00:36:06;;;;;;;18.42;4.87;;;;;;;-2.65;48.14;100408.13;1731936;80;21039;-83
2022/03/11 00:38:33;;;;;;;9.30;4.47;;;;;;;-2.70;48.13;100398.55;1732063;81;21050;-82
2022/03/11 00:41:00;;;;;;;24.52;5.85;;;;;;;-2.74;48.29;100405.16;1732192;81;21020;-83
2022/03/11 00:43:27;;;;;;;15.28;5.03;;;;;;;-2.81;47.82;100407.78;1770353;76;21069;-82
2022/03/11 00:45:55;;;;;;;16.90;5.30;;;;;;;-2.85;47.67;100407.56;1787714;80;21029;-83
2022/03/11 00:48:24;;;;;;;17.90;5.15;;;;;;;-2.95;47.17;100406.23;1799975;80;20992;-83
2022/03/11 00:50:50;;;;;;;20.35;6.60;;;;;;;-3.03;47.87;100413.87;1800114;80;21023;-82
2022/03/11 00:53:17;;;;;;;11.57;3.98;;;;;;;-3.14;48.31;100414.62;1777077;78;21090;-83
2022/03/11 00:55:44;;;;;;;12.73;4.45;;;;;;;-3.22;48.67;100414.62;1768501;81;21010;-82
2022/03/11 00:58:10;;;;;;;12.05;4.17;;;;;;;-3.28;48.85;100424.09;1768709;79;21066;-82
2022/03/11 01:00:37;;;;;;;9.55;4.12;;;;;;;-3.33;49.13;100425.91;1768580;81;21062;-83
2022/03/11 01:03:04;;;;;;;10.45;3.92;;;;;;;-3.46;49.94;100423.11;1768563;80;21175;-82
2022/03/11 01:05:30;;;;;;;9.30;3.62;;;;;;;-3.52;49.58;100430.41;1768723;80;20950;-82
2022/03/11 01:07:57;;;;;;;9.08;3.22;;;;;;;-3.68;50.24;100424.92;1768749;79;20998;-83
2022/03/11 01:10:23;;;;;;;15.72;4.45;;;;;;;-3.77;50.81;100432.07;1768638;81;21075;-82
2022/03/11 01:12:50;;;;;;;10.85;3.62;;;;;;;-3.81;50.76;100426.81;1768852;81;21047;-82
2022/03/11 01:15:17;;;;;;;7.37;2.98;;;;;;;-3.88;50.88;100427.29;1768563;80;21058;-83
2022/03/11 01:17:45;;;;;;;6.50;2.62;;;;;;;-3.92;51.02;100425.75;1768642;81;21531;-83
2022/03/11 01:20:12;;;;;;;8.40;3.08;;;;;;;-4.01;51.68;100423.59;1768627;81;21006;-82
2022/03/11 01:22:39;;;;;;;9.18;3.55;;;;;;;-4.08;51.22;100427.48;1768732;79;20972;-84
2022/03/11 01:25:07;;;;;;;9.70;3.22;;;;;;;-4.11;51.01;100428.97;1768259;80;21037;-82
2022/03/11 01:27:36;;;;;;;10.60;3.65;;;;;;;-4.18;51.82;100430.68;1768508;81;21045;-83
2022/03/11 01:30:06;;;;;;;8.80;3.70;;;;;;;-4.22;51.62;100429.26;1768569;81;20991;-83
2022/03/11 01:32:32;;;;;;;8.25;3.70;;;;;;;-4.39;51.72;100412.20;1768155;81;20983;-83
2022/03/11 01:34:59;;;;;;;8.75;3.20;;;;;;;-4.27;51.75;100438.27;1768500;81;21015;-83
2022/03/11 01:37:25;;;;;;;9.65;2.85;;;;;;;-4.30;50.98;100444.44;1768477;79;20986;-84
2022/03/11 01:39:51;;;;;;;10.10;3.62;;;;;;;-4.35;51.91;100447.53;1768634;81;20974;-83
2022/03/11 01:42:18;;;;;;;6.55;3.30;;;;;;;-4.38;52.11;100443.13;1768349;81;21053;-83
2022/03/11 01:44:45;;;;;;;9.78;3.95;;;;;;;-4.38;51.67;100452.02;1739671;81;21008;-82
2022/03/11 01:47:11;;;;;;;6.65;2.55;;;;;;;-4.43;51.50;100458.12;1695578;84;21013;-85
2022/03/11 01:49:38;;;;;;;6.17;3.33;;;;;;;-4.54;51.62;100453.22;1716694;82;20982;-83
2022/03/11 01:52:04;;;;;;;9.43;3.98;;;;;;;-4.58;52.17;100459.77;1740435;82;21049;-82
2022/03/11 01:54:31;;;;;;;6.55;2.98;;;;;;;-4.60;52.06;100461.34;1721549;83;21004;-83
2022/03/11 01:56:58;;;;;;;6.90;3.30;;;;;;;-4.61;51.84;100456.67;1704068;84;21027;-84
2022/03/11 01:59:24;;;;;;;7.95;3.33;;;;;;;-4.60;51.73;100461.34;1709910;83;21002;-83
2022/03/11 02:01:51;;;;;;;6.92;2.95;;;;;;;-4.70;52.19;100456.14;1684303;83;20976;-83
2022/03/11 02:04:17;;;;;;;9.38;3.62;;;;;;;-4.74;52.42;100458.02;1665305;85;21027;-83
2022/03/11 02:06:45;;;;;;;7.85;2.95;;;;;;;-4.75;52.21;100456.69;1695576;81;21090;-83
2022/03/11 02:09:12;;;;;;;5.87;2.58;;;;;;;-4.76;52.14;100454.92;1679961;84;21012;-84
2022/03/11 02:11:39;;;;;;;8.05;3.15;;;;;;;-4.79;51.70;100461.97;1686963;84;21156;-83
2022/03/11 02:14:05;;;;;;;7.67;3.25;;;;;;;-4.84;52.53;100455.34;1657578;84;21001;-83
2022/03/11 02:16:40;;;;;;;9.15;2.90;;;;;;;-4.83;52.24;100453.70;1734062;83;21047;-83
2022/03/11 02:19:05;;;;;;;8.98;2.90;;;;;;;-4.85;51.76;100454.00;1738237;83;21010;-81
2022/03/11 02:21:45;;;;;;;8.35;3.15;;;;;;;-4.90;51.86;100454.11;1735860;83;21046;-81
2022/03/11 02:24:15;;;;;;;5.45;3.08;;;;;;;-4.96;51.78;100444.48;1713472;81;21151;-83
2022/03/11 02:26:42;;;;;;;8.13;2.85;;;;;;;-4.97;52.19;100451.63;1734498;83;21031;-83
2022/03/11 02:29:09;;;;;;;7.37;3.15;;;;;;;-4.99;51.67;100444.32;1717691;83;21004;-83
2022/03/11 02:31:36;;;;;;;7.95;3.12;;;;;;;-5.06;52.46;100443.06;1694894;84;21035;-84
2022/03/11 02:34:04;;;;;;;5.78;2.95;;;;;;;-5.09;51.73;100443.27;1734483;83;21054;-83
2022/03/11 02:36:31;;;;;;;10.60;3.47;;;;;;;-5.12;51.42;100449.05;1730716;83;20964;-83
2022/03/11 02:38:58;;;;;;;5.22;2.35;;;;;;;-5.20;51.39;100442.24;1705137;84;21030;-83
2022/03/11 02:41:27;;;;;;;7.42;2.95;;;;;;;-5.17;51.54;100447.91;1715251;83;21044;-83
2022/03/11 02:43:53;;;;;;;9.73;3.67;;;;;;;-5.24;51.74;100447.92;1686189;84;21054;-84
2022/03/11 02:46:20;;;;;;;10.13;2.90;;;;;;;-5.21;52.01;100448.52;1693107;84;21232;-83
2022/03/11 02:48:46;;;;;;;5.58;2.30;;;;;;;-5.23;51.30;100452.62;1695815;83;20983;-84
2022/03/11 02:51:13;;;;;;;4.95;3.08;;;;;;;-5.26;51.39;100449.89;1665716;86;21047;-85
2022/03/11 02:53:40;;;;;;;23.30;3.02;;;;;;;-5.24;51.22;100452.12;1695121;84;21052;-84
2022/03/11 02:56:09;;;;;;;8.28;2.27;;;;;;;-5.32;51.25;100449.12;1724112;83;21016;-84
2022/03/11 02:58:38;;;;;;;5.12;2.50;;;;;;;-5.32;51.48;100459.67;1719429;83;20989;-83
2022/03/11 03:01:05;;;;;;;6.55;2.67;;;;;;;-5.29;51.33;100462.37;1695221;85;21019;-84
2022/03/11 03:03:31;;;;;;;9.08;2.55;;;;;;;-5.31;51.41;100461.41;1718551;83;21020;-83
2022/03/11 03:05:58;;;;;;;6.35;2.60;;;;;;;-5.30;51.36;100465.70;1709389;84;21007;-83
2022/03/11 03:08:25;;;;;;;5.30;2.50;;;;;;;-5.30;51.65;100465.30;1718897;83;21019;-83
2022/03/11 03:10:51;;;;;;;8.98;3.10;;;;;;;-5.28;51.57;100466.67;1730128;83;21024;-83
2022/03/11 03:13:18;;;;;;;9.55;3.00;;;;;;;-5.25;52.15;100465.60;1724160;83;20996;-83
2022/03/11 03:15:45;;;;;;;6.80;2.57;;;;;;;-5.25;52.15;100465.60;1701847;83;21021;-83
2022/03/11 03:18:11;;;;;;;8.53;3.35;;;;;;;-5.25;51.79;100467.73;1716006;83;20992;-83
2022/03/11 03:20:38;;;;;;;9.70;3.62;;;;;;;-5.27;51.89;100468.04;1732038;82;21015;-84
2022/03/11 03:23:04;;;;;;;7.20;3.30;;;;;;;-5.30;52.46;100458.97;1730165;82;20995;-83
2022/03/11 03:25:30;;;;;;;8.70;4.15;;;;;;;-5.24;52.51;100469.88;1723196;83;21077;-83
2022/03/11 03:27:57;;;;;;;7.25;3.12;;;;;;;-5.25;52.21;100470.67;1748491;81;20984;-82
2022/03/11 03:30:24;;;;;;;8.18;3.08;;;;;;;-5.35;51.81;100462.00;1716557;82;21056;-83
2022/03/11 03:32:50;;;;;;;8.80;3.20;;;;;;;-5.44;52.41;100464.47;1716803;83;21081;-83
2022/03/11 03:35:17;;;;;;;6.40;3.05;;;;;;;-5.55;52.40;100443.05;1666955;86;21043;-80
2022/03/11 03:37:43;;;;;;;8.63;3.12;;;;;;;-5.59;52.86;100460.99;1700445;84;21472;-80
2022/03/11 03:40:11;;;;;;;6.50;2.83;;;;;;;-5.66;52.45;100459.75;1711435;83;21016;-82
2022/03/11 03:42:38;;;;;;;9.93;3.60;;;;;;;-5.85;53.87;100450.16;1786202;78;21069;-82
2022/03/11 03:45:07;;;;;;;8.45;3.92;;;;;;;-5.83;53.21;100465.06;1775170;77;21072;31
2022/03/11 03:47:33;;;;;;;9.43;3.67;;;;;;;-5.83;53.21;100465.06;1768636;79;21072;-82
2022/03/11 03:50:00;;;;;;;7.85;3.47;;;;;;;-5.94;53.93;100467.30;1756928;79;21058;-83
2022/03/11 03:52:28;;;;;;;9.93;3.95;;;;;;;-5.94;53.93;100467.30;1756889;79;21174;-82
2022/03/11 03:54:56;;;;;;;9.80;3.30;;;;;;;-5.97;53.33;100470.06;1757181;79;21010;-83
2022/03/11 03:57:25;;;;;;;7.22;3.20;;;;;;;-6.03;53.53;100470.55;1757139;79;21105;-83
2022/03/11 03:59:52;;;;;;;8.40;3.77;;;;;;;-6.07;53.72;100457.20;1713814;79;21146;-82
2022/03/11 04:02:19;;;;;;;4.25;2.52;;;;;;;-6.08;53.34;100465.59;1707420;81;21029;-83
2022/03/11 04:04:45;;;;;;;12.93;3.37;;;;;;;-6.08;53.34;100465.59;1721628;79;21069;-85
2022/03/11 04:07:13;;;;;;;7.35;2.65;;;;;;;-6.10;52.95;100479.81;1763915;81;21068;-82
2022/03/11 04:09:39;;;;;;;11.12;2.95;;;;;;;-6.14;53.57;100473.67;1760881;81;21047;-83
2022/03/11 04:12:09;;;;;;;8.15;3.30;;;;;;;-6.14;53.57;100473.67;1765393;81;21052;-84
2022/03/11 04:14:36;;;;;;;7.40;3.17;;;;;;;-6.17;53.49;100475.13;1765551;81;21013;-85
2022/03/11 04:17:03;;;;;;;9.18;4.00;;;;;;;-6.13;53.47;100479.20;1765530;81;21066;-84
2022/03/11 04:19:30;;;;;;;14.60;5.23;;;;;;;-6.15;53.04;100483.70;1756708;82;21015;-83
2022/03/11 04:21:56;;;;;;;7.90;3.33;;;;;;;-6.17;53.17;100482.72;1756857;82;21083;-83
2022/03/11 04:24:23;;;;;;;5.90;2.70;;;;;;;-6.16;53.19;100484.49;1761959;81;21036;-84
2022/03/11 04:26:50;;;;;;;5.20;2.67;;;;;;;-6.17;52.92;100485.26;1760196;81;21032;-82
2022/03/11 04:29:16;;;;;;;6.45;2.83;;;;;;;-6.16;52.94;100489.55;1765334;81;21079;-84
2022/03/11 04:31:42;;;;;;;13.20;3.80;;;;;;;-6.22;53.44;100479.91;1760914;81;21009;-83
2022/03/11 04:34:09;;;;;;;4.65;2.98;;;;;;;-6.30;53.21;100485.73;1775780;80;20972;-84
2022/03/11 04:36:40;;;;;;;7.70;3.27;;;;;;;-6.30;53.21;100485.73;1784116;80;21014;-83
2022/03/11 04:39:08;;;;;;;7.20;3.42;;;;;;;-6.30;52.92;100489.54;1783528;80;20968;-84
2022/03/11 04:41:35;;;;;;;10.32;3.70;;;;;;;-6.30;52.92;100489.54;1784088;80;21054;-85
2022/03/11 04:44:04;;;;;;;9.00;3.98;;;;;;;-6.32;53.23;100503.75;1767704;80;21067;-85
2022/03/11 04:46:31;;;;;;;10.70;3.95;;;;;;;-6.35;53.44;100495.08;1765068;81;21001;-84
2022/03/11 04:48:57;;;;;;;8.23;4.08;;;;;;;-6.33;53.31;100499.45;1783991;80;21300;-85
2022/03/11 04:51:25;;;;;;;8.50;3.85;;;;;;;-6.31;53.10;100499.16;1786017;80;21112;-84
2022/03/11 04:53:52;;;;;;;18.45;5.17;;;;;;;-6.36;53.56;100490.41;1771475;79;21199;-85
2022/03/11 04:56:19;;;;;;;10.25;3.45;;;;;;;-6.36;53.56;100490.41;1762336;80;21064;-84
2022/03/11 04:58:45;;;;;;;25.48;5.28;;;;;;;-6.28;53.49;100502.30;1759759;80;20980;-83
2022/03/11 05:01:12;;;;;;;15.43;4.97;;;;;;;-6.34;53.43;100487.59;1761779;81;21058;-84
2022/03/11 05:03:38;;;;;;;15.60;4.58;;;;;;;-6.28;53.38;100510.76;1764303;81;21062;-85
2022/03/11 05:06:05;;;;;;;14.13;5.87;;;;;;;-6.25;53.37;100506.28;1765128;81;21021;-84
2022/03/11 05:08:31;;;;;;;24.67;9.55;;;;;;;-6.25;53.37;100506.28;1765013;81;21035;-85
2022/03/11 05:10:58;;;;;;;12.53;5.50;;;;;;;-6.24;53.21;100502.58;1765400;81;21045;-84
2022/03/11 05:13:26;;;;;;;14.65;5.08;;;;;;;-6.24;53.21;100502.58;1764880;80;21047;-85
2022/03/11 05:15:52;;;;;;;15.38;7.37;;;;;;;-6.22;53.21;100502.30;1765224;81;21011;-83
2022/03/11 05:18:19;;;;;;;12.28;6.42;;;;;;;-6.17;53.14;100502.58;1765315;81;21150;-83
2022/03/11 05:20:46;;;;;;;12.40;6.13;;;;;;;-6.17;53.14;100502.58;1765715;81;20984;-85
2022/03/11 05:23:12;;;;;;;15.05;5.55;;;;;;;-6.17;53.41;100503.84;1770741;81;21010;-85
2022/03/11 05:25:39;;;;;;;10.82;4.72;;;;;;;-6.20;53.23;100492.27;1767642;81;21012;-85
2022/03/11 05:28:05;;;;;;;11.48;3.20;;;;;;;-6.15;53.11;100516.61;1765082;80;21022;-85
2022/03/11 05:30:32;;;;;;;8.43;4.15;;;;;;;-6.09;53.06;100509.41;1764657;81;21000;-85
2022/03/11 05:32:58;;;;;;;10.38;4.83;;;;;;;-6.13;52.76;100502.00;1763734;81;21056;-84
2022/03/11 05:35:24;;;;;;;17.98;4.90;;;;;;;-6.11;53.09;100504.63;1763936;81;21017;-84
2022/03/11 05:37:51;;;;;;;16.40;6.12;;;;;;;-6.07;53.17;100504.95;1763572;81;21092;-84
2022/03/11 05:40:17;;;;;;;18.70;7.87;;;;;;;-6.04;52.82;100502.99;1760724;81;21006;-85
2022/03/11 05:42:44;;;;;;;17.02;7.22;;;;;;;-6.01;52.60;100511.67;1765373;81;21167;-85
2022/03/11 05:45:12;;;;;;;30.80;12.45;;;;;;;-6.01;53.04;100513.30;1765243;81;20999;-82
2022/03/11 05:47:39;;;;;;;17.45;5.42;;;;;;;-5.92;53.23;100512.98;1765203;81;21019;-84
2022/03/11 05:50:07;;;;;;;16.32;5.50;;;;;;;-5.86;52.74;100511.71;1765221;80;21014;-82
2022/03/11 05:52:39;;;;;;;16.85;6.45;;;;;;;-5.85;52.95;100513.84;1765310;80;21045;-83
2022/03/11 05:55:06;;;;;;;12.70;5.83;;;;;;;-5.85;52.96;100510.05;1765165;81;21121;-83
2022/03/11 05:57:34;;;;;;;18.55;7.22;;;;;;;-5.78;52.86;100511.33;1765470;81;21000;-82
2022/03/11 06:00:06;;;;;;;18.82;7.53;;;;;;;-5.80;52.77;100508.30;1765244;80;21030;-82
2022/03/11 06:02:39;;;;;;;10.13;4.60;;;;;;;-5.72;52.27;100515.11;1764877;80;21332;-82
2022/03/11 06:05:10;;;;;;;25.60;5.78;;;;;;;-5.70;52.26;100513.55;1765406;81;21241;-84
2022/03/11 06:07:36;;;;;;;28.32;6.58;;;;;;;-5.63;52.55;100518.59;1765156;80;21038;-82
2022/03/11 06:10:04;;;;;;;15.40;4.62;;;;;;;-5.56;52.70;100516.95;1765187;81;21066;-82
2022/03/11 06:12:31;;;;;;;13.93;4.25;;;;;;;-5.43;52.47;100520.73;1765369;81;21081;-82
2022/03/11 06:14:57;;;;;;;16.32;5.60;;;;;;;-5.41;52.16;100514.49;1765319;81;21287;-82
2022/03/11 06:17:24;;;;;;;18.42;6.92;;;;;;;-5.31;52.08;100517.17;1765224;81;20991;-83
2022/03/11 06:19:50;;;;;;;18.75;7.67;;;;;;;-5.26;52.01;100521.75;1765515;81;21072;-83
2022/03/11 06:22:17;;;;;;;10.23;4.30;;;;;;;-5.21;51.81;100525.85;1765177;79;21047;-83
2022/03/11 06:24:43;;;;;;;15.75;4.78;;;;;;;-5.12;51.83;100526.39;1765211;81;21039;-81
2022/03/11 06:27:10;;;;;;;13.08;4.90;;;;;;;-5.07;51.51;100527.55;1765483;81;21050;-83
2022/03/11 06:29:36;;;;;;;14.90;4.37;;;;;;;-5.07;50.80;100519.95;1765577;81;21007;-83
2022/03/11 06:32:03;;;;;;;12.85;4.53;;;;;;;-4.96;51.34;100533.26;1762802;79;20967;-82
2022/03/11 06:34:30;;;;;;;13.58;4.80;;;;;;;-4.96;51.14;100527.31;1758978;80;21007;-83
2022/03/11 06:36:57;;;;;;;10.72;4.17;;;;;;;-4.87;51.39;100530.02;1758974;79;20991;-83
2022/03/11 06:39:24;;;;;;;9.53;4.60;;;;;;;-4.78;51.15;100528.41;1759088;82;21006;-83
2022/03/11 06:41:50;;;;;;;13.80;4.45;;;;;;;-4.70;51.18;100525.05;1768201;81;20965;-83
2022/03/11 06:44:19;;;;;;;13.93;5.05;;;;;;;-4.68;51.43;100520.94;1767683;79;21027;-83
2022/03/11 06:46:46;;;;;;;12.00;4.30;;;;;;;-4.61;50.86;100515.05;1765525;80;21062;-82
2022/03/11 06:49:12;;;;;;;11.90;4.72;;;;;;;-4.52;50.90;100520.17;1744090;81;21062;-83
2022/03/11 06:51:40;;;;;;;12.20;4.08;;;;;;;-4.44;50.87;100529.97;1765387;81;21046;-82
2022/03/11 06:54:07;;;;;;;14.07;4.65;;;;;;;-4.38;50.41;100516.77;1765146;81;21011;-82
2022/03/11 06:56:35;;;;;;;9.88;3.90;;;;;;;-4.32;51.12;100521.32;1743936;81;20975;-83
2022/03/11 06:59:04;;;;;;;17.42;4.45;;;;;;;-4.28;50.38;100522.84;1764402;81;21017;-83
2022/03/11 07:01:31;;;;;;;12.37;4.83;;;;;;;-4.24;50.39;100516.28;1769697;80;20992;-83
2022/03/11 07:06:46;;;;;;;9.65;3.67;;;;;;;-4.07;50.44;100520.66;1789719;78;21047;-84
2022/03/11 07:09:13;;;;;;;8.90;4.15;;;;;;;-3.93;50.77;100516.34;1790529;80;20956;-82
2022/03/11 07:11:40;;;;;;;10.88;4.22;;;;;;;-3.86;50.49;100512.47;1779551;80;20999;-82
2022/03/11 07:14:06;;;;;;;13.08;4.90;;;;;;;-3.78;48.69;100518.84;1790356;80;21005;-82
2022/03/11 07:16:32;;;;;;;17.52;6.03;;;;;;;-3.69;49.84;100514.69;1786955;80;21158;-82
2022/03/11 07:18:59;;;;;;;8.60;4.30;;;;;;;-3.65;49.25;100521.69;1782298;80;21017;-82
2022/03/11 07:21:25;;;;;;;9.28;3.65;;;;;;;-3.63;47.67;100515.02;1784403;80;21058;-83
2022/03/11 07:23:54;;;;;;;11.73;3.12;;;;;;;-3.64;46.46;100520.88;1778316;78;20940;-80
2022/03/11 07:26:21;;;;;;;8.53;3.35;;;;;;;-3.60;46.86;100519.02;1783922;80;21058;-82
2022/03/11 07:28:48;;;;;;;8.95;3.80;;;;;;;-3.57;46.37;100520.84;1790092;80;21003;-82
2022/03/11 07:31:15;;;;;;;7.08;2.60;;;;;;;-3.47;47.55;100516.72;1781561;80;20998;-83
2022/03/11 07:33:42;;;;;;;13.88;3.37;;;;;;;-3.45;45.34;100515.13;1780697;79;20996;-83
2022/03/11 07:36:09;;;;;;;4.97;2.52;;;;;;;-3.38;45.82;100521.41;1775829;79;21007;-82
2022/03/11 07:38:35;;;;;;;5.65;2.80;;;;;;;-3.30;45.83;100515.97;1781444;80;20956;-82
2022/03/11 07:41:01;;;;;;;6.90;3.40;;;;;;;-3.19;47.11;100515.25;1786712;80;21318;-81
2022/03/11 07:43:28;;;;;;;5.05;2.58;;;;;;;-3.09;46.18;100512.80;1785926;80;20940;-82
2022/03/11 07:45:54;;;;;;;5.50;2.45;;;;;;;-3.02;44.83;100509.38;1781827;80;20999;-83
2022/03/11 07:48:21;;;;;;;6.97;2.55;;;;;;;-2.99;44.58;100504.84;1778455;80;21304;-84
2022/03/11 07:50:48;;;;;;;9.05;2.75;;;;;;;-3.00;45.64;100511.60;1781922;78;21059;-83
2022/03/11 07:53:15;;;;;;;9.08;2.47;;;;;;;-2.99;45.29;100501.02;1733050;78;21048;-83
2022/03/11 07:55:42;;;;;;;5.67;1.92;;;;;;;-2.90;45.96;100505.32;1733569;79;21110;-82
2022/03/11 07:58:08;;;;;;;6.45;2.33;;;;;;;-2.83;45.14;100502.28;1740915;80;21187;-82
2022/03/11 08:03:41;;;;;;;7.90;3.02;;;;;;;-2.77;43.56;100510.63;1760187;79;21058;-84
2022/03/11 08:06:09;;;;;;;11.57;3.30;;;;;;;-2.71;43.77;100499.48;1738540;79;21027;-84
2022/03/11 08:08:37;;;;;;;5.67;2.62;;;;;;;-2.67;43.90;100500.11;1738386;79;21026;-84
2022/03/11 08:11:07;;;;;;;7.55;2.92;;;;;;;-2.65;42.71;100504.87;1745684;77;21168;-84
2022/03/11 08:13:35;;;;;;;6.28;3.37;;;;;;;-2.60;43.42;100509.82;1769642;77;21014;-82
2022/03/11 08:16:04;;;;;;;7.05;3.60;;;;;;;-2.62;42.52;100498.69;1739661;80;21070;-83
2022/03/11 08:18:31;;;;;;;5.22;2.75;;;;;;;-2.58;41.58;100498.85;1754993;81;21129;-81
2022/03/11 08:20:58;;;;;;;4.97;2.37;;;;;;;-2.49;43.68;100489.97;1738949;80;21252;-82
2022/03/11 08:23:25;;;;;;;7.62;3.45;;;;;;;-2.43;44.37;100481.77;1740344;78;21010;-82
2022/03/11 08:25:51;;;;;;;6.00;2.75;;;;;;;-2.33;42.78;100488.19;1732535;83;20996;-82
2022/03/11 08:28:22;;;;;;;8.23;3.52;;;;;;;-2.26;43.79;100480.05;1697391;82;21132;-82
2022/03/11 08:30:47;;;;;;;6.00;2.25;;;;;;;-2.22;43.21;100484.50;1688482;82;21068;-82
2022/03/11 08:33:20;;;;;;;5.55;2.05;;;;;;;-2.18;41.74;100483.84;1665738;83;21087;-82
2022/03/11 08:35:44;;;;;;;5.03;2.35;;;;;;;-2.11;41.76;100482.45;1691381;80;21015;-84
2022/03/11 08:38:11;;;;;;;7.47;2.95;;;;;;;-2.09;42.33;100476.66;1793984;77;21042;-83
2022/03/11 08:40:38;;;;;;;6.72;2.58;;;;;;;-2.02;42.93;100477.40;1790823;78;21133;-83
2022/03/11 08:43:05;;;;;;;8.00;3.12;;;;;;;-1.98;41.96;100472.05;1794548;78;21066;-82
2022/03/11 08:45:32;;;;;;;5.70;2.70;;;;;;;-1.95;40.91;100469.66;1747741;81;21387;-81
2022/03/11 08:51:03;;;;;;;8.20;3.20;;;;;;;-1.86;43.20;100467.94;1732975;78;21099;-82
2022/03/11 08:53:30;;;;;;;5.85;2.58;;;;;;;-1.75;43.20;100461.67;1732781;80;20996;-82
2022/03/11 08:55:57;;;;;;;7.47;3.10;;;;;;;-1.67;42.66;100465.81;1753091;77;21047;-84
2022/03/11 08:58:24;;;;;;;9.78;3.40;;;;;;;-1.76;39.22;100465.00;1816209;77;20971;-83
2022/03/11 09:00:51;;;;;;;6.62;2.52;;;;;;;-1.77;41.50;100457.28;1781313;78;21085;-83
2022/03/11 09:03:19;;;;;;;5.28;2.87;;;;;;;-1.77;41.54;100453.45;1770532;78;21184;-84
2022/03/11 09:05:53;;;;;;;11.18;2.98;;;;;;;-1.72;41.89;100452.00;1751230;79;21145;31
2022/03/11 09:08:20;;;;;;;7.78;3.05;;;;;;;-1.63;42.65;100449.89;1739578;81;21009;-82
2022/03/11 09:10:48;;;;;;;6.00;3.10;;;;;;;-1.53;42.10;100445.67;1712641;81;21145;-82
2022/03/11 09:13:15;;;;;;;7.87;3.35;;;;;;;-1.38;40.55;100444.19;1731952;81;21064;-84
2022/03/11 09:15:42;;;;;;;7.58;2.65;;;;;;;-1.34;40.79;100441.38;1740960;80;21030;-84
2022/03/11 09:18:10;;;;;;;6.75;2.42;;;;;;;-1.23;39.21;100440.19;1740811;80;20983;-84
2022/03/11 09:23:26;;;;;;;6.15;2.70;;;;;;;-1.32;39.60;100435.94;1770029;78;21145;31
2022/03/11 09:28:59;;;;;;;5.17;2.53;;;;;;;-1.19;40.08;100436.95;1743040;79;23302;31
2022/03/11 09:34:29;;;;;;;6.25;2.75;;;;;;;-1.20;40.69;100432.23;1724828;78;21110;-84
2022/03/11 09:36:57;;;;;;;7.05;2.72;;;;;;;-1.11;40.42;100422.84;1710200;79;21052;-84
2022/03/11 09:48:34;;;;;;;7.60;2.90;;;;;;;-0.98;38.90;100422.95;1720524;79;21066;-82
2022/03/11 09:51:02;;;;;;;6.50;2.55;;;;;;;-0.88;39.47;100413.59;1670299;84;21049;-83
2022/03/11 10:05:52;;;;;;;6.37;2.47;;;;;;;-0.31;38.54;100404.42;1707202;80;21065;-83
2022/03/11 10:08:34;;;;;;;6.95;2.95;;;;;;;-0.16;37.44;100406.73;1683844;85;21046;-84
2022/03/11 10:11:26;;;;;;;8.03;2.60;;;;;;;-0.13;36.19;100399.58;1658850;84;21049;-83
2022/03/11 10:20:02;;;;;;;8.30;2.77;;;;;;;0.04;36.53;100403.66;1718678;82;21123;-83
2022/03/11 10:25:49;;;;;;;9.28;3.02;;;;;;;0.18;35.82;100387.14;1792425;76;21624;31
2022/03/11 10:28:17;;;;;;;7.70;3.70;;;;;;;0.30;36.06;100385.84;1768616;79;21054;-83
2022/03/11 10:30:44;;;;;;;19.32;8.68;;;;;;;0.48;37.12;100381.41;1767378;81;21071;-83
2022/03/11 10:33:14;;;;;;;28.57;7.95;;;;;;;0.52;37.19;100383.27;1767403;81;21038;-83
2022/03/11 10:35:47;;;;;;;73.25;18.25;;;;;;;0.65;36.84;100377.30;1763735;77;22529;31
2022/03/11 10:38:20;;;;;;;502.53;115.97;;;;;;;0.75;34.96;100367.84;1685491;82;21025;-83
2022/03/11 10:40:57;;;;;;;23.73;10.53;;;;;;;0.83;34.92;100371.53;1720727;79;21030;31
2022/03/11 10:43:32;;;;;;;9.53;3.95;;;;;;;0.87;32.59;100369.54;1791839;80;21064;-83
2022/03/11 10:46:06;;;;;;;78.12;21.80;;;;;;;0.94;34.80;100358.70;1694720;80;21358;-85
2022/03/11 10:51:33;;;;;;;78.57;23.27;;;;;;;1.28;36.05;100349.57;1728370;82;21091;-83
2022/03/11 10:57:16;;;;;;;38.05;12.33;;;;;;;1.65;35.79;100343.06;1723130;78;22367;31
2022/03/11 10:59:43;;;;;;;26.02;8.70;;;;;;;1.68;34.12;100339.71;1749258;80;21050;-84
2022/03/11 11:02:11;;;;;;;27.82;8.65;;;;;;;1.87;33.58;100337.27;1714331;82;21023;-85
2022/03/11 11:04:40;;;;;;;39.53;12.50;;;;;;;2.03;33.30;100342.06;1720494;81;21029;-86
2022/03/11 11:07:07;;;;;;;29.82;11.73;;;;;;;2.23;35.19;100335.33;1694050;81;21309;-88
2022/03/11 11:09:34;;;;;;;27.25;8.88;;;;;;;2.44;34.87;100327.37;1664810;83;21125;-88
2022/03/11 11:12:01;;;;;;;37.60;14.20;;;;;;;2.58;33.56;100323.47;1711672;83;21021;-87
2022/03/11 11:14:27;;;;;;;29.85;11.00;;;;;;;2.55;33.25;100337.11;1686549;85;21028;-89
2022/03/11 11:16:56;;;;;;;36.63;13.53;;;;;;;2.61;34.77;100332.95;1717211;83;20960;-87
2022/03/11 11:19:23;;;;;;;25.08;9.60;;;;;;;2.44;32.39;100328.66;1687215;79;21075;-89
2022/03/11 11:33:04;;;;;;;10.05;3.67;;;;;;;2.75;33.17;100320.08;1875821;74;22883;-87
2022/03/11 11:35:36;;;;;;;9.15;3.72;;;;;;;2.72;30.28;100314.85;1857262;75;20995;-86
2022/03/11 11:38:07;;;;;;;7.20;3.47;;;;;;;2.71;31.04;100316.55;1870952;75;21014;-86
2022/03/11 11:40:39;;;;;;;7.53;3.25;;;;;;;2.92;29.28;100309.80;1845285;76;21054;-86
2022/03/11 11:46:10;;;;;;;10.05;3.35;;;;;;;3.46;30.86;100298.66;1648833;86;21086;-90
2022/03/11 11:48:42;;;;;;;8.00;3.27;;;;;;;4.42;28.34;100293.41;1718923;80;21102;-90
2022/03/11 11:51:12;;;;;;;8.75;3.27;;;;;;;5.37;31.86;100280.84;1734487;80;21222;-85
2022/03/11 11:53:52;;;;;;;11.12;3.58;;;;;;;6.51;34.76;100280.16;1758963;81;20941;-84
2022/03/11 11:56:48;;;;;;;9.58;3.70;;;;;;;7.27;31.01;100276.08;1768917;80;21107;-86
2022/03/11 11:59:19;;;;;;;8.93;3.85;;;;;;;7.90;28.41;100283.38;1759653;80;21099;-92
2022/03/11 12:01:50;;;;;;;6.55;3.42;;;;;;;8.41;23.52;100284.44;1798247;79;21132;-87
2022/03/11 12:04:25;;;;;;;5.78;3.30;;;;;;;9.05;29.65;100269.83;1830488;77;20940;-86
2022/03/11 12:07:04;;;;;;;7.20;4.00;;;;;;;9.36;26.19;100274.13;1837669;77;21626;-86
2022/03/11 12:10:00;;;;;;;8.88;4.45;;;;;;;10.32;22.51;100269.96;1833485;77;20968;-86
2022/03/11 12:12:36;;;;;;;7.33;3.65;;;;;;;11.19;25.34;100246.81;1831507;77;20984;-87
2022/03/11 12:15:11;;;;;;;7.28;3.70;;;;;;;11.45;25.89;100254.36;1837232;77;20970;-89
2022/03/11 12:17:48;;;;;;;9.68;4.35;;;;;;;12.01;26.90;100237.69;1826952;77;20992;-88
2022/03/11 12:20:35;;;;;;;13.98;7.67;;;;;;;12.28;23.00;100250.81;1836659;77;21064;-88
2022/03/11 12:23:08;;;;;;;8.08;4.47;;;;;;;12.70;22.69;100250.63;1847912;77;20968;-85
2022/03/11 12:25:44;;;;;;;9.33;3.65;;;;;;;12.99;23.62;100241.91;1830481;77;21006;-86
2022/03/11 12:28:22;;;;;;;12.78;7.47;;;;;;;13.30;23.94;100246.20;1824217;77;21004;-82
2022/03/11 12:30:55;;;;;;;12.13;6.87;;;;;;;13.92;21.26;100236.73;1825880;77;20988;-85
2022/03/11 12:33:33;;;;;;;9.00;4.35;;;;;;;14.59;22.15;100233.57;1830789;77;22479;-87
2022/03/11 12:36:06;;;;;;;15.32;8.68;;;;;;;14.61;19.36;100223.47;1814179;77;21444;-87
2022/03/11 12:38:34;;;;;;;14.25;6.10;;;;;;;15.02;22.00;100225.53;1795094;79;20992;-86
2022/03/11 12:41:11;;;;;;;9.58;4.65;;;;;;;15.41;20.18;100225.38;1809557;77;21022;-87